sensor_id;sensor_type;location;lat;lon;timestamp;P1;durP1;ratioP1;P2;durP2;ratioP2
48897;SDS011;34713;50.038;20.000;2022-12-07T00:01:24;8.98;;;5.80;;
48897;SDS011;34713;50.038;20.000;2022-12-07T00:03:53;9.20;;;6.30;;
48897;SDS011;34713;50.038;20.000;2022-12-07T00:06:23;11.43;;;6.62;;
48897;SDS011;34713;50.038;20.000;2022-12-07T00:08:49;9.93;;;6.55;;
48897;SDS011;34713;50.038;20.000;2022-12-07T00:11:16;10.00;;;6.45;;
48897;SDS011;34713;50.038;20.000;2022-12-07T00:13:45;9.48;;;6.25;;
48897;SDS011;34713;50.038;20.000;2022-12-07T00:16:16;11.00;;;6.40;;
48897;SDS011;34713;50.038;20.000;2022-12-07T00:18:42;10.40;;;6.45;;
48897;SDS011;34713;50.038;20.000;2022-12-07T00:21:10;9.83;;;5.78;;
48897;SDS011;34713;50.038;20.000;2022-12-07T00:23:42;9.08;;;5.80;;
48897;SDS011;34713;50.038;20.000;2022-12-07T00:26:11;8.20;;;5.67;;
48897;SDS011;34713;50.038;20.000;2022-12-07T00:28:46;10.40;;;6.10;;
48897;SDS011;34713;50.038;20.000;2022-12-07T00:31:14;10.00;;;5.83;;
48897;SDS011;34713;50.038;20.000;2022-12-07T00:33:42;10.05;;;6.17;;
48897;SDS011;34713;50.038;20.000;2022-12-07T00:36:10;9.35;;;5.37;;
48897;SDS011;34713;50.038;20.000;2022-12-07T00:38:39;8.48;;;5.55;;
48897;SDS011;34713;50.038;20.000;2022-12-07T00:41:06;9.95;;;5.70;;
48897;SDS011;34713;50.038;20.000;2022-12-07T00:43:37;8.55;;;5.37;;
48897;SDS011;34713;50.038;20.000;2022-12-07T00:46:03;6.87;;;4.62;;
48897;SDS011;34713;50.038;20.000;2022-12-07T00:48:30;7.42;;;4.25;;
48897;SDS011;34713;50.038;20.000;2022-12-07T00:50:56;9.25;;;4.83;;
48897;SDS011;34713;50.038;20.000;2022-12-07T00:53:23;7.15;;;5.10;;
48897;SDS011;34713;50.038;20.000;2022-12-07T00:55:49;8.28;;;5.05;;
48897;SDS011;34713;50.038;20.000;2022-12-07T00:58:15;7.33;;;4.78;;
48897;SDS011;34713;50.038;20.000;2022-12-07T01:00:41;7.17;;;4.90;;
48897;SDS011;34713;50.038;20.000;2022-12-07T01:03:09;7.17;;;4.60;;
48897;SDS011;34713;50.038;20.000;2022-12-07T01:05:37;8.10;;;4.97;;
48897;SDS011;34713;50.038;20.000;2022-12-07T01:08:05;7.42;;;4.95;;
48897;SDS011;34713;50.038;20.000;2022-12-07T01:10:32;8.93;;;5.50;;
48897;SDS011;34713;50.038;20.000;2022-12-07T01:12:58;9.75;;;5.83;;
48897;SDS011;34713;50.038;20.000;2022-12-07T01:15:25;6.55;;;4.45;;
48897;SDS011;34713;50.038;20.000;2022-12-07T01:17:51;9.73;;;5.67;;
48897;SDS011;34713;50.038;20.000;2022-12-07T01:20:17;6.85;;;5.03;;
48897;SDS011;34713;50.038;20.000;2022-12-07T01:22:43;8.33;;;4.87;;
48897;SDS011;34713;50.038;20.000;2022-12-07T01:25:10;8.63;;;4.92;;
48897;SDS011;34713;50.038;20.000;2022-12-07T01:27:37;6.92;;;4.40;;
48897;SDS011;34713;50.038;20.000;2022-12-07T01:30:04;7.78;;;4.67;;
48897;SDS011;34713;50.038;20.000;2022-12-07T01:32:32;8.15;;;5.05;;
48897;SDS011;34713;50.038;20.000;2022-12-07T01:34:59;7.85;;;5.12;;
48897;SDS011;34713;50.038;20.000;2022-12-07T01:37:25;7.40;;;4.55;;
48897;SDS011;34713;50.038;20.000;2022-12-07T01:39:51;6.72;;;4.50;;
48897;SDS011;34713;50.038;20.000;2022-12-07T01:42:17;6.03;;;4.45;;
48897;SDS011;34713;50.038;20.000;2022-12-07T01:45:15;9.08;;;4.42;;
48897;SDS011;34713;50.038;20.000;2022-12-07T01:47:38;8.90;;;5.20;;
48897;SDS011;34713;50.038;20.000;2022-12-07T01:50:04;7.33;;;4.67;;
48897;SDS011;34713;50.038;20.000;2022-12-07T01:52:31;6.83;;;4.62;;
48897;SDS011;34713;50.038;20.000;2022-12-07T01:55:00;6.87;;;4.60;;
48897;SDS011;34713;50.038;20.000;2022-12-07T01:57:31;7.47;;;4.65;;
48897;SDS011;34713;50.038;20.000;2022-12-07T02:00:00;7.55;;;5.22;;
48897;SDS011;34713;50.038;20.000;2022-12-07T02:02:28;7.05;;;5.03;;
48897;SDS011;34713;50.038;20.000;2022-12-07T02:04:59;7.67;;;5.00;;
48897;SDS011;34713;50.038;20.000;2022-12-07T02:07:27;8.35;;;5.10;;
48897;SDS011;34713;50.038;20.000;2022-12-07T02:09:55;7.85;;;5.05;;
48897;SDS011;34713;50.038;20.000;2022-12-07T02:12:20;8.50;;;5.40;;
48897;SDS011;34713;50.038;20.000;2022-12-07T02:14:50;8.13;;;5.00;;
48897;SDS011;34713;50.038;20.000;2022-12-07T02:17:36;8.25;;;5.78;;
48897;SDS011;34713;50.038;20.000;2022-12-07T02:29:24;9.50;;;5.22;;
48897;SDS011;34713;50.038;20.000;2022-12-07T02:34:55;10.13;;;5.83;;
48897;SDS011;34713;50.038;20.000;2022-12-07T02:40:17;8.33;;;5.45;;
48897;SDS011;34713;50.038;20.000;2022-12-07T02:43:00;8.43;;;5.80;;
48897;SDS011;34713;50.038;20.000;2022-12-07T02:45:32;8.18;;;5.67;;
48897;SDS011;34713;50.038;20.000;2022-12-07T02:48:01;9.13;;;5.47;;
48897;SDS011;34713;50.038;20.000;2022-12-07T02:50:29;8.30;;;5.90;;
48897;SDS011;34713;50.038;20.000;2022-12-07T02:52:55;8.08;;;5.62;;
48897;SDS011;34713;50.038;20.000;2022-12-07T02:55:23;9.13;;;6.00;;
48897;SDS011;34713;50.038;20.000;2022-12-07T03:00:45;8.50;;;5.67;;
48897;SDS011;34713;50.038;20.000;2022-12-07T03:03:13;8.93;;;5.65;;
48897;SDS011;34713;50.038;20.000;2022-12-07T03:05:55;9.45;;;5.87;;
48897;SDS011;34713;50.038;20.000;2022-12-07T03:08:37;10.00;;;6.40;;
48897;SDS011;34713;50.038;20.000;2022-12-07T03:11:29;9.28;;;6.35;;
48897;SDS011;34713;50.038;20.000;2022-12-07T03:14:11;9.00;;;5.83;;
48897;SDS011;34713;50.038;20.000;2022-12-07T03:16:44;9.13;;;5.80;;
48897;SDS011;34713;50.038;20.000;2022-12-07T03:19:32;8.58;;;6.30;;
48897;SDS011;34713;50.038;20.000;2022-12-07T03:22:01;9.28;;;5.92;;
48897;SDS011;34713;50.038;20.000;2022-12-07T03:24:33;11.22;;;6.22;;
48897;SDS011;34713;50.038;20.000;2022-12-07T03:27:34;10.78;;;6.35;;
48897;SDS011;34713;50.038;20.000;2022-12-07T03:30:09;9.08;;;6.25;;
48897;SDS011;34713;50.038;20.000;2022-12-07T03:32:45;9.73;;;6.42;;
48897;SDS011;34713;50.038;20.000;2022-12-07T03:35:22;8.90;;;6.65;;
48897;SDS011;34713;50.038;20.000;2022-12-07T03:37:53;9.75;;;6.37;;
48897;SDS011;34713;50.038;20.000;2022-12-07T03:40:44;10.50;;;6.92;;
48897;SDS011;34713;50.038;20.000;2022-12-07T03:43:08;11.03;;;7.15;;
48897;SDS011;34713;50.038;20.000;2022-12-07T03:45:41;10.25;;;6.92;;
48897;SDS011;34713;50.038;20.000;2022-12-07T03:50:53;9.53;;;7.35;;
48897;SDS011;34713;50.038;20.000;2022-12-07T03:56:04;12.00;;;7.03;;
48897;SDS011;34713;50.038;20.000;2022-12-07T03:58:33;10.35;;;7.05;;
48897;SDS011;34713;50.038;20.000;2022-12-07T04:00:59;12.68;;;7.58;;
48897;SDS011;34713;50.038;20.000;2022-12-07T04:03:25;12.85;;;8.30;;
48897;SDS011;34713;50.038;20.000;2022-12-07T04:05:51;12.33;;;7.60;;
48897;SDS011;34713;50.038;20.000;2022-12-07T04:08:17;10.65;;;7.60;;
48897;SDS011;34713;50.038;20.000;2022-12-07T04:10:43;10.78;;;8.08;;
48897;SDS011;34713;50.038;20.000;2022-12-07T04:13:09;12.70;;;8.80;;
48897;SDS011;34713;50.038;20.000;2022-12-07T04:15:35;12.37;;;9.13;;
48897;SDS011;34713;50.038;20.000;2022-12-07T04:18:01;11.70;;;8.48;;
48897;SDS011;34713;50.038;20.000;2022-12-07T04:20:26;13.50;;;8.83;;
48897;SDS011;34713;50.038;20.000;2022-12-07T04:22:52;13.00;;;9.05;;
48897;SDS011;34713;50.038;20.000;2022-12-07T04:25:18;13.45;;;9.40;;
48897;SDS011;34713;50.038;20.000;2022-12-07T04:27:44;13.53;;;9.55;;
48897;SDS011;34713;50.038;20.000;2022-12-07T04:30:09;15.00;;;10.08;;
48897;SDS011;34713;50.038;20.000;2022-12-07T04:32:36;13.65;;;9.75;;
48897;SDS011;34713;50.038;20.000;2022-12-07T04:35:02;14.45;;;9.25;;
48897;SDS011;34713;50.038;20.000;2022-12-07T04:37:28;15.23;;;10.38;;
48897;SDS011;34713;50.038;20.000;2022-12-07T04:39:54;17.55;;;10.48;;
48897;SDS011;34713;50.038;20.000;2022-12-07T04:42:20;17.15;;;10.60;;
48897;SDS011;34713;50.038;20.000;2022-12-07T04:44:46;15.13;;;10.13;;
48897;SDS011;34713;50.038;20.000;2022-12-07T04:47:11;16.35;;;10.68;;
48897;SDS011;34713;50.038;20.000;2022-12-07T04:49:37;15.40;;;10.68;;
48897;SDS011;34713;50.038;20.000;2022-12-07T04:52:03;17.65;;;11.03;;
48897;SDS011;34713;50.038;20.000;2022-12-07T04:54:29;15.05;;;10.35;;
48897;SDS011;34713;50.038;20.000;2022-12-07T04:56:55;15.43;;;9.93;;
48897;SDS011;34713;50.038;20.000;2022-12-07T04:59:21;17.05;;;10.55;;
48897;SDS011;34713;50.038;20.000;2022-12-07T05:01:47;13.35;;;9.78;;
48897;SDS011;34713;50.038;20.000;2022-12-07T05:04:13;16.42;;;11.43;;
48897;SDS011;34713;50.038;20.000;2022-12-07T05:06:39;16.30;;;10.80;;
48897;SDS011;34713;50.038;20.000;2022-12-07T05:09:04;17.65;;;11.15;;
48897;SDS011;34713;50.038;20.000;2022-12-07T05:11:30;14.90;;;10.18;;
48897;SDS011;34713;50.038;20.000;2022-12-07T05:16:42;13.18;;;9.88;;
48897;SDS011;34713;50.038;20.000;2022-12-07T05:19:09;14.87;;;10.38;;
48897;SDS011;34713;50.038;20.000;2022-12-07T05:21:36;14.98;;;10.75;;
48897;SDS011;34713;50.038;20.000;2022-12-07T05:24:02;14.87;;;10.85;;
48897;SDS011;34713;50.038;20.000;2022-12-07T05:26:29;17.10;;;10.48;;
48897;SDS011;34713;50.038;20.000;2022-12-07T05:28:56;16.00;;;11.33;;
48897;SDS011;34713;50.038;20.000;2022-12-07T05:31:23;16.97;;;10.53;;
48897;SDS011;34713;50.038;20.000;2022-12-07T05:33:50;14.98;;;10.90;;
48897;SDS011;34713;50.038;20.000;2022-12-07T05:36:16;15.93;;;11.05;;
48897;SDS011;34713;50.038;20.000;2022-12-07T05:38:42;14.73;;;10.58;;
48897;SDS011;34713;50.038;20.000;2022-12-07T05:41:08;15.08;;;10.35;;
48897;SDS011;34713;50.038;20.000;2022-12-07T05:43:38;12.53;;;9.13;;
48897;SDS011;34713;50.038;20.000;2022-12-07T05:46:04;13.13;;;9.58;;
48897;SDS011;34713;50.038;20.000;2022-12-07T05:48:30;13.35;;;9.73;;
48897;SDS011;34713;50.038;20.000;2022-12-07T05:50:55;14.05;;;10.30;;
48897;SDS011;34713;50.038;20.000;2022-12-07T05:53:21;13.45;;;9.93;;
48897;SDS011;34713;50.038;20.000;2022-12-07T05:55:47;14.38;;;10.70;;
48897;SDS011;34713;50.038;20.000;2022-12-07T05:58:12;13.22;;;9.25;;
48897;SDS011;34713;50.038;20.000;2022-12-07T06:00:57;11.90;;;8.47;;
48897;SDS011;34713;50.038;20.000;2022-12-07T06:03:23;10.70;;;8.10;;
48897;SDS011;34713;50.038;20.000;2022-12-07T06:05:48;9.85;;;7.47;;
48897;SDS011;34713;50.038;20.000;2022-12-07T06:08:14;9.88;;;7.78;;
48897;SDS011;34713;50.038;20.000;2022-12-07T06:10:40;9.00;;;6.65;;
48897;SDS011;34713;50.038;20.000;2022-12-07T06:13:07;10.23;;;7.08;;
48897;SDS011;34713;50.038;20.000;2022-12-07T06:15:37;7.80;;;6.08;;
48897;SDS011;34713;50.038;20.000;2022-12-07T06:18:03;8.88;;;6.20;;
48897;SDS011;34713;50.038;20.000;2022-12-07T06:20:28;9.63;;;6.62;;
48897;SDS011;34713;50.038;20.000;2022-12-07T06:22:54;7.72;;;6.53;;
48897;SDS011;34713;50.038;20.000;2022-12-07T06:25:20;8.63;;;5.65;;
48897;SDS011;34713;50.038;20.000;2022-12-07T06:27:46;7.92;;;5.92;;
48897;SDS011;34713;50.038;20.000;2022-12-07T06:30:12;7.75;;;5.45;;
48897;SDS011;34713;50.038;20.000;2022-12-07T06:32:38;6.70;;;5.40;;
48897;SDS011;34713;50.038;20.000;2022-12-07T06:35:04;7.30;;;5.15;;
48897;SDS011;34713;50.038;20.000;2022-12-07T06:37:30;8.25;;;5.40;;
48897;SDS011;34713;50.038;20.000;2022-12-07T06:39:56;7.00;;;5.10;;
48897;SDS011;34713;50.038;20.000;2022-12-07T06:42:21;6.85;;;5.20;;
48897;SDS011;34713;50.038;20.000;2022-12-07T06:44:47;7.00;;;4.75;;
48897;SDS011;34713;50.038;20.000;2022-12-07T06:47:13;9.70;;;6.45;;
48897;SDS011;34713;50.038;20.000;2022-12-07T06:49:39;8.25;;;5.60;;
48897;SDS011;34713;50.038;20.000;2022-12-07T06:52:05;7.78;;;5.60;;
48897;SDS011;34713;50.038;20.000;2022-12-07T06:54:31;8.75;;;6.35;;
48897;SDS011;34713;50.038;20.000;2022-12-07T06:56:56;8.85;;;6.10;;
48897;SDS011;34713;50.038;20.000;2022-12-07T06:59:22;9.65;;;6.30;;
48897;SDS011;34713;50.038;20.000;2022-12-07T07:01:48;8.43;;;6.05;;
48897;SDS011;34713;50.038;20.000;2022-12-07T07:04:14;10.65;;;6.55;;
48897;SDS011;34713;50.038;20.000;2022-12-07T07:06:40;10.53;;;6.58;;
48897;SDS011;34713;50.038;20.000;2022-12-07T07:09:05;10.20;;;6.28;;
48897;SDS011;34713;50.038;20.000;2022-12-07T07:11:31;11.63;;;7.30;;
48897;SDS011;34713;50.038;20.000;2022-12-07T07:13:57;10.30;;;6.42;;
48897;SDS011;34713;50.038;20.000;2022-12-07T07:16:28;10.08;;;7.03;;
48897;SDS011;34713;50.038;20.000;2022-12-07T07:18:56;11.63;;;7.12;;
48897;SDS011;34713;50.038;20.000;2022-12-07T07:21:22;11.30;;;6.92;;
48897;SDS011;34713;50.038;20.000;2022-12-07T07:23:48;10.78;;;7.17;;
48897;SDS011;34713;50.038;20.000;2022-12-07T07:26:14;9.55;;;7.33;;
48897;SDS011;34713;50.038;20.000;2022-12-07T07:28:40;11.70;;;7.72;;
48897;SDS011;34713;50.038;20.000;2022-12-07T07:31:06;13.10;;;8.20;;
48897;SDS011;34713;50.038;20.000;2022-12-07T07:33:31;11.60;;;8.25;;
48897;SDS011;34713;50.038;20.000;2022-12-07T07:35:57;12.70;;;8.60;;
48897;SDS011;34713;50.038;20.000;2022-12-07T07:38:23;13.00;;;8.13;;
48897;SDS011;34713;50.038;20.000;2022-12-07T07:40:49;13.38;;;8.35;;
48897;SDS011;34713;50.038;20.000;2022-12-07T07:43:15;13.70;;;9.75;;
48897;SDS011;34713;50.038;20.000;2022-12-07T07:45:40;15.58;;;9.63;;
48897;SDS011;34713;50.038;20.000;2022-12-07T07:48:06;15.90;;;10.05;;
48897;SDS011;34713;50.038;20.000;2022-12-07T07:50:32;14.18;;;9.70;;
48897;SDS011;34713;50.038;20.000;2022-12-07T07:52:58;19.45;;;10.58;;
48897;SDS011;34713;50.038;20.000;2022-12-07T07:55:23;13.50;;;9.20;;
48897;SDS011;34713;50.038;20.000;2022-12-07T07:57:49;14.40;;;10.28;;
48897;SDS011;34713;50.038;20.000;2022-12-07T08:00:15;13.70;;;9.30;;
48897;SDS011;34713;50.038;20.000;2022-12-07T08:02:42;11.83;;;8.25;;
48897;SDS011;34713;50.038;20.000;2022-12-07T08:05:08;13.65;;;8.50;;
48897;SDS011;34713;50.038;20.000;2022-12-07T08:07:36;12.90;;;8.50;;
48897;SDS011;34713;50.038;20.000;2022-12-07T08:10:02;13.20;;;8.88;;
48897;SDS011;34713;50.038;20.000;2022-12-07T08:12:29;12.47;;;8.28;;
48897;SDS011;34713;50.038;20.000;2022-12-07T08:14:55;11.90;;;7.95;;
48897;SDS011;34713;50.038;20.000;2022-12-07T08:17:20;11.85;;;8.53;;
48897;SDS011;34713;50.038;20.000;2022-12-07T08:19:46;10.28;;;7.28;;
48897;SDS011;34713;50.038;20.000;2022-12-07T08:22:12;9.93;;;6.92;;
48897;SDS011;34713;50.038;20.000;2022-12-07T08:24:38;9.40;;;6.83;;
48897;SDS011;34713;50.038;20.000;2022-12-07T08:27:06;8.48;;;5.85;;
48897;SDS011;34713;50.038;20.000;2022-12-07T08:29:32;7.70;;;5.87;;
48897;SDS011;34713;50.038;20.000;2022-12-07T08:31:58;9.23;;;6.40;;
48897;SDS011;34713;50.038;20.000;2022-12-07T08:34:25;7.53;;;5.50;;
48897;SDS011;34713;50.038;20.000;2022-12-07T08:36:51;7.95;;;6.42;;
48897;SDS011;34713;50.038;20.000;2022-12-07T08:39:17;9.25;;;5.85;;
48897;SDS011;34713;50.038;20.000;2022-12-07T08:41:43;9.20;;;6.25;;
48897;SDS011;34713;50.038;20.000;2022-12-07T08:44:08;8.43;;;6.35;;
48897;SDS011;34713;50.038;20.000;2022-12-07T08:46:35;9.80;;;6.75;;
48897;SDS011;34713;50.038;20.000;2022-12-07T08:49:29;9.95;;;7.60;;
48897;SDS011;34713;50.038;20.000;2022-12-07T08:52:09;9.50;;;6.72;;
48897;SDS011;34713;50.038;20.000;2022-12-07T08:54:35;10.18;;;6.85;;
48897;SDS011;34713;50.038;20.000;2022-12-07T08:57:04;9.83;;;6.92;;
48897;SDS011;34713;50.038;20.000;2022-12-07T08:59:31;10.03;;;6.80;;
48897;SDS011;34713;50.038;20.000;2022-12-07T09:01:59;11.63;;;7.47;;
48897;SDS011;34713;50.038;20.000;2022-12-07T09:04:25;10.53;;;7.28;;
48897;SDS011;34713;50.038;20.000;2022-12-07T09:06:51;10.23;;;7.47;;
48897;SDS011;34713;50.038;20.000;2022-12-07T09:09:18;10.32;;;7.55;;
48897;SDS011;34713;50.038;20.000;2022-12-07T09:11:44;12.23;;;8.23;;
48897;SDS011;34713;50.038;20.000;2022-12-07T09:14:10;10.30;;;7.90;;
48897;SDS011;34713;50.038;20.000;2022-12-07T09:16:37;12.50;;;7.28;;
48897;SDS011;34713;50.038;20.000;2022-12-07T09:19:04;11.63;;;8.40;;
48897;SDS011;34713;50.038;20.000;2022-12-07T09:21:30;12.10;;;8.50;;
48897;SDS011;34713;50.038;20.000;2022-12-07T09:23:56;11.83;;;9.08;;
48897;SDS011;34713;50.038;20.000;2022-12-07T09:26:22;11.18;;;8.40;;
48897;SDS011;34713;50.038;20.000;2022-12-07T09:28:48;10.98;;;8.73;;
48897;SDS011;34713;50.038;20.000;2022-12-07T09:31:13;14.15;;;8.70;;
48897;SDS011;34713;50.038;20.000;2022-12-07T09:33:39;10.80;;;7.97;;
48897;SDS011;34713;50.038;20.000;2022-12-07T09:36:06;12.28;;;8.50;;
48897;SDS011;34713;50.038;20.000;2022-12-07T09:38:34;10.40;;;7.97;;
48897;SDS011;34713;50.038;20.000;2022-12-07T09:41:04;11.25;;;7.58;;
48897;SDS011;34713;50.038;20.000;2022-12-07T09:43:33;10.65;;;7.67;;
48897;SDS011;34713;50.038;20.000;2022-12-07T09:46:01;9.00;;;7.62;;
48897;SDS011;34713;50.038;20.000;2022-12-07T09:48:33;9.60;;;7.37;;
48897;SDS011;34713;50.038;20.000;2022-12-07T09:51:02;9.80;;;7.10;;
48897;SDS011;34713;50.038;20.000;2022-12-07T09:53:36;8.25;;;6.60;;
48897;SDS011;34713;50.038;20.000;2022-12-07T09:56:01;10.45;;;7.12;;
48897;SDS011;34713;50.038;20.000;2022-12-07T09:58:28;8.68;;;6.45;;
48897;SDS011;34713;50.038;20.000;2022-12-07T10:00:56;8.68;;;6.30;;
48897;SDS011;34713;50.038;20.000;2022-12-07T10:03:35;8.98;;;6.42;;
48897;SDS011;34713;50.038;20.000;2022-12-07T10:06:05;9.25;;;5.97;;
48897;SDS011;34713;50.038;20.000;2022-12-07T10:08:32;9.70;;;5.87;;
48897;SDS011;34713;50.038;20.000;2022-12-07T10:11:02;7.22;;;5.35;;
48897;SDS011;34713;50.038;20.000;2022-12-07T10:13:35;10.50;;;6.05;;
48897;SDS011;34713;50.038;20.000;2022-12-07T10:16:04;9.93;;;5.70;;
48897;SDS011;34713;50.038;20.000;2022-12-07T10:18:36;7.72;;;6.00;;
48897;SDS011;34713;50.038;20.000;2022-12-07T10:21:19;6.87;;;4.75;;
48897;SDS011;34713;50.038;20.000;2022-12-07T10:24:02;9.15;;;5.95;;
48897;SDS011;34713;50.038;20.000;2022-12-07T10:26:33;8.88;;;6.17;;
48897;SDS011;34713;50.038;20.000;2022-12-07T10:34:43;9.98;;;7.08;;
48897;SDS011;34713;50.038;20.000;2022-12-07T10:39:50;8.73;;;6.62;;
48897;SDS011;34713;50.038;20.000;2022-12-07T10:42:22;9.70;;;6.60;;
48897;SDS011;34713;50.038;20.000;2022-12-07T10:53:57;10.70;;;6.53;;
48897;SDS011;34713;50.038;20.000;2022-12-07T11:10:44;7.78;;;5.78;;
48897;SDS011;34713;50.038;20.000;2022-12-07T11:13:23;7.25;;;5.08;;
48897;SDS011;34713;50.038;20.000;2022-12-07T11:24:32;7.47;;;4.78;;
48897;SDS011;34713;50.038;20.000;2022-12-07T11:27:24;8.15;;;4.70;;
48897;SDS011;34713;50.038;20.000;2022-12-07T11:30:27;8.23;;;4.70;;
48897;SDS011;34713;50.038;20.000;2022-12-07T11:39:22;8.28;;;4.62;;
48897;SDS011;34713;50.038;20.000;2022-12-07T11:41:48;6.08;;;4.65;;
48897;SDS011;34713;50.038;20.000;2022-12-07T11:44:23;6.75;;;4.15;;
48897;SDS011;34713;50.038;20.000;2022-12-07T11:47:20;5.28;;;4.30;;
48897;SDS011;34713;50.038;20.000;2022-12-07T11:50:13;6.42;;;4.60;;
48897;SDS011;34713;50.038;20.000;2022-12-07T12:06:48;5.65;;;4.70;;
48897;SDS011;34713;50.038;20.000;2022-12-07T12:09:17;5.62;;;3.90;;
48897;SDS011;34713;50.038;20.000;2022-12-07T12:18:08;6.92;;;4.33;;
48897;SDS011;34713;50.038;20.000;2022-12-07T12:20:58;7.55;;;4.62;;
48897;SDS011;34713;50.038;20.000;2022-12-07T12:23:37;5.55;;;4.20;;
48897;SDS011;34713;50.038;20.000;2022-12-07T12:26:19;7.45;;;5.08;;
48897;SDS011;34713;50.038;20.000;2022-12-07T12:28:52;7.87;;;4.95;;
48897;SDS011;34713;50.038;20.000;2022-12-07T12:34:29;7.25;;;4.53;;
48897;SDS011;34713;50.038;20.000;2022-12-07T12:36:47;5.72;;;4.15;;
48897;SDS011;34713;50.038;20.000;2022-12-07T12:39:16;7.55;;;4.70;;
48897;SDS011;34713;50.038;20.000;2022-12-07T12:46:51;6.22;;;4.08;;
48897;SDS011;34713;50.038;20.000;2022-12-07T12:49:32;5.15;;;3.47;;
48897;SDS011;34713;50.038;20.000;2022-12-07T12:57:38;6.50;;;3.40;;
48897;SDS011;34713;50.038;20.000;2022-12-07T13:00:15;5.90;;;3.40;;
48897;SDS011;34713;50.038;20.000;2022-12-07T13:02:49;4.58;;;3.00;;
48897;SDS011;34713;50.038;20.000;2022-12-07T13:05:19;4.22;;;2.70;;
48897;SDS011;34713;50.038;20.000;2022-12-07T13:07:58;4.90;;;3.05;;
48897;SDS011;34713;50.038;20.000;2022-12-07T13:10:45;4.50;;;2.62;;
48897;SDS011;34713;50.038;20.000;2022-12-07T13:23:38;4.25;;;3.08;;
48897;SDS011;34713;50.038;20.000;2022-12-07T13:31:46;4.35;;;3.10;;
48897;SDS011;34713;50.038;20.000;2022-12-07T13:39:50;5.00;;;2.80;;
48897;SDS011;34713;50.038;20.000;2022-12-07T13:42:21;4.00;;;2.90;;
48897;SDS011;34713;50.038;20.000;2022-12-07T13:44:54;5.87;;;3.92;;
48897;SDS011;34713;50.038;20.000;2022-12-07T13:49:58;5.85;;;3.33;;
48897;SDS011;34713;50.038;20.000;2022-12-07T13:52:27;5.12;;;3.25;;
48897;SDS011;34713;50.038;20.000;2022-12-07T13:54:56;6.35;;;3.20;;
48897;SDS011;34713;50.038;20.000;2022-12-07T13:57:33;5.87;;;3.35;;
48897;SDS011;34713;50.038;20.000;2022-12-07T14:00:13;5.58;;;3.90;;
48897;SDS011;34713;50.038;20.000;2022-12-07T14:02:31;6.03;;;3.80;;
48897;SDS011;34713;50.038;20.000;2022-12-07T14:10:23;7.22;;;4.05;;
48897;SDS011;34713;50.038;20.000;2022-12-07T14:12:56;6.35;;;3.98;;
48897;SDS011;34713;50.038;20.000;2022-12-07T14:15:25;5.40;;;3.47;;
48897;SDS011;34713;50.038;20.000;2022-12-07T14:17:55;7.03;;;3.67;;
48897;SDS011;34713;50.038;20.000;2022-12-07T14:20:32;4.78;;;3.37;;
48897;SDS011;34713;50.038;20.000;2022-12-07T14:23:05;6.72;;;4.30;;
48897;SDS011;34713;50.038;20.000;2022-12-07T14:25:49;6.70;;;4.20;;
48897;SDS011;34713;50.038;20.000;2022-12-07T14:28:27;5.87;;;4.10;;
48897;SDS011;34713;50.038;20.000;2022-12-07T14:30:58;6.42;;;4.12;;
48897;SDS011;34713;50.038;20.000;2022-12-07T14:33:26;7.00;;;4.15;;
48897;SDS011;34713;50.038;20.000;2022-12-07T14:35:52;6.67;;;4.22;;
48897;SDS011;34713;50.038;20.000;2022-12-07T14:38:23;6.20;;;4.30;;
48897;SDS011;34713;50.038;20.000;2022-12-07T14:40:50;6.55;;;4.37;;
48897;SDS011;34713;50.038;20.000;2022-12-07T14:43:18;6.78;;;4.10;;
48897;SDS011;34713;50.038;20.000;2022-12-07T14:45:45;8.30;;;4.30;;
48897;SDS011;34713;50.038;20.000;2022-12-07T14:48:12;9.43;;;4.28;;
48897;SDS011;34713;50.038;20.000;2022-12-07T14:50:41;7.08;;;5.00;;
48897;SDS011;34713;50.038;20.000;2022-12-07T14:53:14;6.78;;;4.60;;
48897;SDS011;34713;50.038;20.000;2022-12-07T14:55:44;7.95;;;5.12;;
48897;SDS011;34713;50.038;20.000;2022-12-07T14:58:17;9.10;;;4.85;;
48897;SDS011;34713;50.038;20.000;2022-12-07T15:00:42;10.05;;;5.30;;
48897;SDS011;34713;50.038;20.000;2022-12-07T15:03:09;11.15;;;5.35;;
48897;SDS011;34713;50.038;20.000;2022-12-07T15:05:35;7.58;;;5.40;;
48897;SDS011;34713;50.038;20.000;2022-12-07T15:08:02;7.12;;;4.75;;
48897;SDS011;34713;50.038;20.000;2022-12-07T15:10:29;7.33;;;5.28;;
48897;SDS011;34713;50.038;20.000;2022-12-07T15:12:59;8.00;;;5.70;;
48897;SDS011;34713;50.038;20.000;2022-12-07T15:15:45;8.25;;;5.62;;
48897;SDS011;34713;50.038;20.000;2022-12-07T15:18:11;9.65;;;5.90;;
48897;SDS011;34713;50.038;20.000;2022-12-07T15:20:37;9.45;;;5.65;;
48897;SDS011;34713;50.038;20.000;2022-12-07T15:23:04;9.30;;;5.92;;
48897;SDS011;34713;50.038;20.000;2022-12-07T15:25:29;7.75;;;5.62;;
48897;SDS011;34713;50.038;20.000;2022-12-07T15:27:55;7.22;;;5.50;;
48897;SDS011;34713;50.038;20.000;2022-12-07T15:30:21;10.80;;;5.72;;
48897;SDS011;34713;50.038;20.000;2022-12-07T15:32:50;8.33;;;5.33;;
48897;SDS011;34713;50.038;20.000;2022-12-07T15:35:17;7.72;;;5.60;;
48897;SDS011;34713;50.038;20.000;2022-12-07T15:37:43;8.23;;;5.25;;
48897;SDS011;34713;50.038;20.000;2022-12-07T15:40:09;10.90;;;5.62;;
48897;SDS011;34713;50.038;20.000;2022-12-07T15:42:36;8.63;;;5.78;;
48897;SDS011;34713;50.038;20.000;2022-12-07T15:45:03;9.80;;;5.92;;
48897;SDS011;34713;50.038;20.000;2022-12-07T15:47:34;10.18;;;5.95;;
48897;SDS011;34713;50.038;20.000;2022-12-07T15:50:04;11.40;;;6.37;;
48897;SDS011;34713;50.038;20.000;2022-12-07T15:52:33;11.50;;;6.42;;
48897;SDS011;34713;50.038;20.000;2022-12-07T15:54:59;11.57;;;6.62;;
48897;SDS011;34713;50.038;20.000;2022-12-07T15:57:27;10.68;;;7.10;;
48897;SDS011;34713;50.038;20.000;2022-12-07T15:59:54;9.18;;;6.47;;
48897;SDS011;34713;50.038;20.000;2022-12-07T16:02:20;11.93;;;7.53;;
48897;SDS011;34713;50.038;20.000;2022-12-07T16:04:48;10.95;;;6.75;;
48897;SDS011;34713;50.038;20.000;2022-12-07T16:07:14;11.43;;;7.10;;
48897;SDS011;34713;50.038;20.000;2022-12-07T16:09:41;12.30;;;7.15;;
48897;SDS011;34713;50.038;20.000;2022-12-07T16:12:09;11.50;;;7.15;;
48897;SDS011;34713;50.038;20.000;2022-12-07T16:14:36;11.60;;;7.85;;
48897;SDS011;34713;50.038;20.000;2022-12-07T16:17:03;13.18;;;7.35;;
48897;SDS011;34713;50.038;20.000;2022-12-07T16:19:30;12.35;;;8.33;;
48897;SDS011;34713;50.038;20.000;2022-12-07T16:21:57;13.13;;;7.72;;
48897;SDS011;34713;50.038;20.000;2022-12-07T16:24:23;12.37;;;7.75;;
48897;SDS011;34713;50.038;20.000;2022-12-07T16:26:49;11.68;;;8.63;;
48897;SDS011;34713;50.038;20.000;2022-12-07T16:29:15;15.10;;;8.88;;
48897;SDS011;34713;50.038;20.000;2022-12-07T16:31:43;15.85;;;8.93;;
48897;SDS011;34713;50.038;20.000;2022-12-07T16:34:09;13.68;;;8.68;;
48897;SDS011;34713;50.038;20.000;2022-12-07T16:36:35;12.78;;;8.90;;
48897;SDS011;34713;50.038;20.000;2022-12-07T16:39:01;14.58;;;9.55;;
48897;SDS011;34713;50.038;20.000;2022-12-07T16:41:28;13.93;;;9.88;;
48897;SDS011;34713;50.038;20.000;2022-12-07T16:43:54;17.48;;;9.30;;
48897;SDS011;34713;50.038;20.000;2022-12-07T16:46:19;15.85;;;10.15;;
48897;SDS011;34713;50.038;20.000;2022-12-07T16:48:45;17.62;;;10.13;;
48897;SDS011;34713;50.038;20.000;2022-12-07T16:51:12;14.70;;;9.30;;
48897;SDS011;34713;50.038;20.000;2022-12-07T16:53:39;15.50;;;9.00;;
48897;SDS011;34713;50.038;20.000;2022-12-07T16:56:11;13.50;;;8.60;;